Date,TemperatureHighF,TemperatureAvgF,TemperatureLowF,DewpointHighF,DewpointAvgF,DewpointLowF,HumidityHigh,HumidityAvg,HumidityLow,PressureMaxIn,PressureMinIn,WindSpeedMaxMPH,WindSpeedAvgMPH,GustSpeedMaxMPH,PrecipitationSumIn
2013-5-1,63,47,30,42,36,29,99,70,38,30.58,30.45,2,0,7,0.04
2013-5-2,70,53,39,48,41,37,96,68,36,30.56,30.38,2,0,9,0.00
2013-5-3,69,54,40,54,45,39,98,75,51,30.41,30.25,2,0,8,0.00
2013-5-4,78,60,44,53,46,42,99,67,29,30.26,30.03,2,0,11,0.00
2013-5-5,81,64,46,55,48,43,90,61,30,30.03,29.81,2,0,9,0.00
2013-5-6,85,67,49,56,48,41,84,55,28,29.88,29.79,2,0,6,0.00
2013-5-7,71,59,51,56,51,46,93,77,55,30.01,29.84,2,0,5,0.00
2013-5-8,62,54,49,55,51,48,98,91,76,30.17,30.01,1,0,4,0.00
2013-5-9,72,57,46,60,52,46,100,86,62,30.24,30.14,2,0,5,0.01
2013-5-10,77,61,48,60,52,-100,100,77,48,30.22,30.14,2,0,7,0.01
2013-5-11,81,65,54,59,53,-100,96,71,40,30.20,30.02,2,0,7,0.00
2013-5-12,68,61,56,61,57,53,98,87,68,30.11,30.03,1,0,7,0.26
2013-5-13,60,54,45,58,52,44,97,94,78,30.21,29.95,3,0,10,0.24
2013-5-14,62,52,44,46,43,38,96,75,42,30.24,30.14,3,0,7,0.01
2013-5-15,67,52,42,50,46,41,98,80,48,30.14,30.03,2,0,6,0.10
2013-5-16,69,54,49,56,37,-100,99,85,59,30.04,29.89,2,0,6,0.17
2013-5-17,56,53,50,54,48,-100,98,93,85,30.07,29.96,1,0,6,0.18
2013-5-18,58,53,49,52,49,47,96,86,68,30.29,30.07,2,0,7,0.01
2013-5-19,60,53,48,54,50,47,98,91,72,30.42,30.29,1,0,4,0.07
2013-5-20,67,54,43,56,49,43,99,85,53,30.37,29.92,3,0,6,0.01
2013-5-21,52,48,45,50,46,44,98,95,88,29.93,29.80,1,0,5,1.07
2013-5-22,50,46,43,49,44,42,99,97,89,29.96,29.86,1,0,4,0.66
2013-5-23,55,47,40,50,45,40,100,94,76,30.03,29.94,2,0,7,0.06
2013-5-24,59,50,42,50,46,41,100,87,65,30.06,29.99,1,0,5,0.01
2013-5-25,61,52,47,49,47,45,99,84,59,30.06,30.00,2,0,7,0.02
2013-5-26,60,53,47,55,50,45,98,90,73,30.01,29.96,2,0,6,0.04
2013-5-27,58,54,48,56,52,47,99,95,88,29.99,29.75,1,0,5,0.25
2013-5-28,58,54,50,56,52,49,99,93,82,29.91,29.79,2,0,9,0.20
2013-5-29,55,50,48,52,49,47,99,96,88,29.98,29.69,1,0,3,0.49
2013-5-30,60,52,46,52,48,45,99,90,65,30.26,29.98,3,0,9,0.33
2013-5-31,66,54,46,52,48,45,98,80,49,30.36,30.25,2,0,7,0.01